sensor_id;sensor_type;location;lat;lon;timestamp;P1;durP1;ratioP1;P2;durP2;ratioP2
6374;SDS011;35400;45.472;-122.822;2022-12-16T00:00:03;4.47;;;4.00;;
6374;SDS011;35400;45.472;-122.822;2022-12-16T00:02:34;4.70;;;3.67;;
6374;SDS011;35400;45.472;-122.822;2022-12-16T00:05:01;3.67;;;3.03;;
6374;SDS011;35400;45.472;-122.822;2022-12-16T00:07:29;3.23;;;2.23;;
6374;SDS011;35400;45.472;-122.822;2022-12-16T00:09:55;3.50;;;2.80;;
6374;SDS011;35400;45.472;-122.822;2022-12-16T00:12:22;3.27;;;2.17;;
6374;SDS011;35400;45.472;-122.822;2022-12-16T00:14:49;3.00;;;2.00;;
6374;SDS011;35400;45.472;-122.822;2022-12-16T00:17:16;2.90;;;2.40;;
6374;SDS011;35400;45.472;-122.822;2022-12-16T00:19:43;2.93;;;2.20;;
6374;SDS011;35400;45.472;-122.822;2022-12-16T00:22:10;4.13;;;2.33;;
6374;SDS011;35400;45.472;-122.822;2022-12-16T00:24:37;2.33;;;2.13;;
6374;SDS011;35400;45.472;-122.822;2022-12-16T00:27:03;3.20;;;2.73;;
6374;SDS011;35400;45.472;-122.822;2022-12-16T00:29:31;5.10;;;2.80;;
6374;SDS011;35400;45.472;-122.822;2022-12-16T00:31:58;3.00;;;1.87;;
6374;SDS011;35400;45.472;-122.822;2022-12-16T00:34:25;4.10;;;2.60;;
6374;SDS011;35400;45.472;-122.822;2022-12-16T00:36:52;3.07;;;2.37;;
6374;SDS011;35400;45.472;-122.822;2022-12-16T00:39:18;4.20;;;2.30;;
6374;SDS011;35400;45.472;-122.822;2022-12-16T00:41:45;4.07;;;3.10;;
6374;SDS011;35400;45.472;-122.822;2022-12-16T00:44:12;4.47;;;2.90;;
6374;SDS011;35400;45.472;-122.822;2022-12-16T00:46:39;4.27;;;3.07;;
6374;SDS011;35400;45.472;-122.822;2022-12-16T00:49:06;4.00;;;3.10;;
6374;SDS011;35400;45.472;-122.822;2022-12-16T00:51:33;3.37;;;2.67;;
6374;SDS011;35400;45.472;-122.822;2022-12-16T00:54:00;2.50;;;2.30;;
6374;SDS011;35400;45.472;-122.822;2022-12-16T00:56:27;3.30;;;2.30;;
6374;SDS011;35400;45.472;-122.822;2022-12-16T00:58:53;3.00;;;2.63;;
6374;SDS011;35400;45.472;-122.822;2022-12-16T01:01:20;5.93;;;4.27;;
6374;SDS011;35400;45.472;-122.822;2022-12-16T01:03:47;5.40;;;4.43;;
6374;SDS011;35400;45.472;-122.822;2022-12-16T01:06:15;6.27;;;3.53;;
6374;SDS011;35400;45.472;-122.822;2022-12-16T01:08:43;6.87;;;4.50;;
6374;SDS011;35400;45.472;-122.822;2022-12-16T01:11:14;9.37;;;6.80;;
6374;SDS011;35400;45.472;-122.822;2022-12-16T01:13:41;7.37;;;4.60;;
6374;SDS011;35400;45.472;-122.822;2022-12-16T01:16:08;9.13;;;6.07;;
6374;SDS011;35400;45.472;-122.822;2022-12-16T01:18:35;3.83;;;2.93;;
6374;SDS011;35400;45.472;-122.822;2022-12-16T01:21:06;3.47;;;3.10;;
6374;SDS011;35400;45.472;-122.822;2022-12-16T01:23:36;3.03;;;2.67;;
6374;SDS011;35400;45.472;-122.822;2022-12-16T01:26:03;3.40;;;2.27;;
6374;SDS011;35400;45.472;-122.822;2022-12-16T01:28:30;4.67;;;2.30;;
6374;SDS011;35400;45.472;-122.822;2022-12-16T01:30:58;3.90;;;2.40;;
6374;SDS011;35400;45.472;-122.822;2022-12-16T01:33:30;3.67;;;2.40;;
6374;SDS011;35400;45.472;-122.822;2022-12-16T01:35:58;2.40;;;2.20;;
6374;SDS011;35400;45.472;-122.822;2022-12-16T01:38:29;2.87;;;2.60;;
6374;SDS011;35400;45.472;-122.822;2022-12-16T01:40:55;3.47;;;2.50;;
6374;SDS011;35400;45.472;-122.822;2022-12-16T01:43:24;2.43;;;2.20;;
6374;SDS011;35400;45.472;-122.822;2022-12-16T01:45:57;2.30;;;2.10;;
6374;SDS011;35400;45.472;-122.822;2022-12-16T01:48:33;4.10;;;3.40;;
6374;SDS011;35400;45.472;-122.822;2022-12-16T01:51:06;4.57;;;3.20;;
6374;SDS011;35400;45.472;-122.822;2022-12-16T01:53:41;3.87;;;3.40;;
6374;SDS011;35400;45.472;-122.822;2022-12-16T01:56:10;4.03;;;3.43;;
6374;SDS011;35400;45.472;-122.822;2022-12-16T01:58:39;3.60;;;2.80;;
6374;SDS011;35400;45.472;-122.822;2022-12-16T02:01:07;6.07;;;2.97;;
6374;SDS011;35400;45.472;-122.822;2022-12-16T02:03:36;4.87;;;3.37;;
6374;SDS011;35400;45.472;-122.822;2022-12-16T02:06:04;4.67;;;3.10;;
6374;SDS011;35400;45.472;-122.822;2022-12-16T02:08:32;4.47;;;3.43;;
6374;SDS011;35400;45.472;-122.822;2022-12-16T02:14:11;4.43;;;2.77;;
6374;SDS011;35400;45.472;-122.822;2022-12-16T02:16:50;3.40;;;2.67;;
6374;SDS011;35400;45.472;-122.822;2022-12-16T02:25:48;3.90;;;3.03;;
6374;SDS011;35400;45.472;-122.822;2022-12-16T02:34:29;5.63;;;4.87;;
6374;SDS011;35400;45.472;-122.822;2022-12-16T02:37:30;6.40;;;5.70;;
6374;SDS011;35400;45.472;-122.822;2022-12-16T02:40:24;6.73;;;6.03;;
6374;SDS011;35400;45.472;-122.822;2022-12-16T02:43:06;9.10;;;5.50;;
6374;SDS011;35400;45.472;-122.822;2022-12-16T02:45:37;5.40;;;4.07;;
6374;SDS011;35400;45.472;-122.822;2022-12-16T02:48:05;6.97;;;4.67;;
6374;SDS011;35400;45.472;-122.822;2022-12-16T02:53:12;6.83;;;4.17;;
6374;SDS011;35400;45.472;-122.822;2022-12-16T02:55:50;7.67;;;5.13;;
6374;SDS011;35400;45.472;-122.822;2022-12-16T03:04:04;10.10;;;7.27;;
6374;SDS011;35400;45.472;-122.822;2022-12-16T03:06:41;9.47;;;6.60;;
6374;SDS011;35400;45.472;-122.822;2022-12-16T03:09:12;8.40;;;6.17;;
6374;SDS011;35400;45.472;-122.822;2022-12-16T03:11:43;8.10;;;5.50;;
6374;SDS011;35400;45.472;-122.822;2022-12-16T03:14:14;8.83;;;6.03;;
6374;SDS011;35400;45.472;-122.822;2022-12-16T03:16:43;7.60;;;6.23;;
6374;SDS011;35400;45.472;-122.822;2022-12-16T03:19:11;7.20;;;6.17;;
6374;SDS011;35400;45.472;-122.822;2022-12-16T03:21:44;8.90;;;6.63;;
6374;SDS011;35400;45.472;-122.822;2022-12-16T03:24:17;9.10;;;7.37;;
6374;SDS011;35400;45.472;-122.822;2022-12-16T03:29:44;9.80;;;7.23;;
6374;SDS011;35400;45.472;-122.822;2022-12-16T03:32:35;9.40;;;6.83;;
6374;SDS011;35400;45.472;-122.822;2022-12-16T03:37:50;9.57;;;7.33;;
6374;SDS011;35400;45.472;-122.822;2022-12-16T03:40:21;9.87;;;6.70;;
6374;SDS011;35400;45.472;-122.822;2022-12-16T03:42:50;10.90;;;7.43;;
6374;SDS011;35400;45.472;-122.822;2022-12-16T03:45:21;11.93;;;7.07;;
6374;SDS011;35400;45.472;-122.822;2022-12-16T03:47:51;9.13;;;6.23;;
6374;SDS011;35400;45.472;-122.822;2022-12-16T03:50:24;8.10;;;5.93;;
6374;SDS011;35400;45.472;-122.822;2022-12-16T03:52:54;9.80;;;6.03;;
6374;SDS011;35400;45.472;-122.822;2022-12-16T03:55:21;8.47;;;5.90;;
6374;SDS011;35400;45.472;-122.822;2022-12-16T03:57:48;11.57;;;7.40;;
6374;SDS011;35400;45.472;-122.822;2022-12-16T04:00:15;10.57;;;7.20;;
6374;SDS011;35400;45.472;-122.822;2022-12-16T04:02:43;9.70;;;7.03;;
6374;SDS011;35400;45.472;-122.822;2022-12-16T04:05:10;9.87;;;7.23;;
6374;SDS011;35400;45.472;-122.822;2022-12-16T04:07:37;11.73;;;7.37;;
6374;SDS011;35400;45.472;-122.822;2022-12-16T04:10:04;12.07;;;7.53;;
6374;SDS011;35400;45.472;-122.822;2022-12-16T04:12:32;11.73;;;7.70;;
6374;SDS011;35400;45.472;-122.822;2022-12-16T04:15:18;12.93;;;8.13;;
6374;SDS011;35400;45.472;-122.822;2022-12-16T04:18:03;15.30;;;8.93;;
6374;SDS011;35400;45.472;-122.822;2022-12-16T04:20:50;14.60;;;9.40;;
6374;SDS011;35400;45.472;-122.822;2022-12-16T04:23:41;20.00;;;11.13;;
6374;SDS011;35400;45.472;-122.822;2022-12-16T04:26:33;15.87;;;10.20;;
6374;SDS011;35400;45.472;-122.822;2022-12-16T04:29:18;19.40;;;11.53;;
6374;SDS011;35400;45.472;-122.822;2022-12-16T04:31:45;14.70;;;9.37;;
6374;SDS011;35400;45.472;-122.822;2022-12-16T04:34:12;15.93;;;9.13;;
6374;SDS011;35400;45.472;-122.822;2022-12-16T04:36:52;18.73;;;9.60;;
6374;SDS011;35400;45.472;-122.822;2022-12-16T04:39:38;16.13;;;9.80;;
6374;SDS011;35400;45.472;-122.822;2022-12-16T04:42:23;16.97;;;11.03;;
6374;SDS011;35400;45.472;-122.822;2022-12-16T04:45:09;15.17;;;9.87;;
6374;SDS011;35400;45.472;-122.822;2022-12-16T04:47:55;14.40;;;9.57;;
6374;SDS011;35400;45.472;-122.822;2022-12-16T04:50:40;12.97;;;8.23;;
6374;SDS011;35400;45.472;-122.822;2022-12-16T04:53:26;13.87;;;8.37;;
6374;SDS011;35400;45.472;-122.822;2022-12-16T04:56:11;13.23;;;8.43;;
6374;SDS011;35400;45.472;-122.822;2022-12-16T04:58:56;12.63;;;8.20;;
6374;SDS011;35400;45.472;-122.822;2022-12-16T05:01:42;12.40;;;7.17;;
6374;SDS011;35400;45.472;-122.822;2022-12-16T05:04:27;9.57;;;6.03;;
6374;SDS011;35400;45.472;-122.822;2022-12-16T05:07:13;10.57;;;6.00;;
6374;SDS011;35400;45.472;-122.822;2022-12-16T05:09:58;9.67;;;6.10;;
6374;SDS011;35400;45.472;-122.822;2022-12-16T05:12:43;8.47;;;5.53;;
6374;SDS011;35400;45.472;-122.822;2022-12-16T05:15:29;7.03;;;5.13;;
6374;SDS011;35400;45.472;-122.822;2022-12-16T05:18:15;10.43;;;6.73;;
6374;SDS011;35400;45.472;-122.822;2022-12-16T05:21:01;9.87;;;6.03;;
6374;SDS011;35400;45.472;-122.822;2022-12-16T05:23:46;9.03;;;5.90;;
6374;SDS011;35400;45.472;-122.822;2022-12-16T05:26:46;9.77;;;6.20;;
6374;SDS011;35400;45.472;-122.822;2022-12-16T05:29:31;9.70;;;5.87;;
6374;SDS011;35400;45.472;-122.822;2022-12-16T05:32:16;9.60;;;6.10;;
6374;SDS011;35400;45.472;-122.822;2022-12-16T05:35:01;10.87;;;6.17;;
6374;SDS011;35400;45.472;-122.822;2022-12-16T05:37:47;8.53;;;5.80;;
6374;SDS011;35400;45.472;-122.822;2022-12-16T05:40:32;10.97;;;5.73;;
6374;SDS011;35400;45.472;-122.822;2022-12-16T05:43:18;8.63;;;6.33;;
6374;SDS011;35400;45.472;-122.822;2022-12-16T05:46:03;8.77;;;6.00;;
6374;SDS011;35400;45.472;-122.822;2022-12-16T05:48:48;10.40;;;5.87;;
6374;SDS011;35400;45.472;-122.822;2022-12-16T05:51:33;9.33;;;6.07;;
6374;SDS011;35400;45.472;-122.822;2022-12-16T05:54:18;11.50;;;6.43;;
6374;SDS011;35400;45.472;-122.822;2022-12-16T05:57:03;6.63;;;5.40;;
6374;SDS011;35400;45.472;-122.822;2022-12-16T05:59:48;8.47;;;5.43;;
6374;SDS011;35400;45.472;-122.822;2022-12-16T06:02:42;10.20;;;5.57;;
6374;SDS011;35400;45.472;-122.822;2022-12-16T06:05:27;11.30;;;5.70;;
6374;SDS011;35400;45.472;-122.822;2022-12-16T06:08:13;9.33;;;4.67;;
6374;SDS011;35400;45.472;-122.822;2022-12-16T06:10:58;7.20;;;4.70;;
6374;SDS011;35400;45.472;-122.822;2022-12-16T06:13:43;6.97;;;5.03;;
6374;SDS011;35400;45.472;-122.822;2022-12-16T06:16:29;7.63;;;4.77;;
6374;SDS011;35400;45.472;-122.822;2022-12-16T06:19:14;6.03;;;4.07;;
6374;SDS011;35400;45.472;-122.822;2022-12-16T06:21:59;7.13;;;5.07;;
6374;SDS011;35400;45.472;-122.822;2022-12-16T06:24:44;6.50;;;3.83;;
6374;SDS011;35400;45.472;-122.822;2022-12-16T06:27:29;6.80;;;4.97;;
6374;SDS011;35400;45.472;-122.822;2022-12-16T06:30:14;5.73;;;4.40;;
6374;SDS011;35400;45.472;-122.822;2022-12-16T06:32:59;7.73;;;4.80;;
6374;SDS011;35400;45.472;-122.822;2022-12-16T06:35:44;6.60;;;4.50;;
6374;SDS011;35400;45.472;-122.822;2022-12-16T06:38:29;5.83;;;3.47;;
6374;SDS011;35400;45.472;-122.822;2022-12-16T06:41:14;4.67;;;3.37;;
6374;SDS011;35400;45.472;-122.822;2022-12-16T06:43:59;6.10;;;3.43;;
6374;SDS011;35400;45.472;-122.822;2022-12-16T06:46:44;3.80;;;2.87;;
6374;SDS011;35400;45.472;-122.822;2022-12-16T06:49:29;3.43;;;2.43;;
6374;SDS011;35400;45.472;-122.822;2022-12-16T06:52:14;2.47;;;2.17;;
6374;SDS011;35400;45.472;-122.822;2022-12-16T06:54:59;2.43;;;2.10;;
6374;SDS011;35400;45.472;-122.822;2022-12-16T06:57:44;2.80;;;2.03;;
6374;SDS011;35400;45.472;-122.822;2022-12-16T07:00:29;9.03;;;5.30;;
6374;SDS011;35400;45.472;-122.822;2022-12-16T07:03:15;6.83;;;4.63;;
6374;SDS011;35400;45.472;-122.822;2022-12-16T07:06:00;6.63;;;4.70;;
6374;SDS011;35400;45.472;-122.822;2022-12-16T07:08:45;5.67;;;3.30;;
6374;SDS011;35400;45.472;-122.822;2022-12-16T07:11:31;5.23;;;3.13;;
6374;SDS011;35400;45.472;-122.822;2022-12-16T07:14:16;4.53;;;2.90;;
6374;SDS011;35400;45.472;-122.822;2022-12-16T07:17:01;3.90;;;3.00;;
6374;SDS011;35400;45.472;-122.822;2022-12-16T07:19:47;6.23;;;4.10;;
6374;SDS011;35400;45.472;-122.822;2022-12-16T07:22:32;7.43;;;3.43;;
6374;SDS011;35400;45.472;-122.822;2022-12-16T07:25:17;4.93;;;3.60;;
6374;SDS011;35400;45.472;-122.822;2022-12-16T07:28:02;3.03;;;2.50;;
6374;SDS011;35400;45.472;-122.822;2022-12-16T07:30:47;3.00;;;2.13;;
6374;SDS011;35400;45.472;-122.822;2022-12-16T07:33:32;2.73;;;1.87;;
6374;SDS011;35400;45.472;-122.822;2022-12-16T07:36:18;2.33;;;1.50;;
6374;SDS011;35400;45.472;-122.822;2022-12-16T07:39:19;3.23;;;2.00;;
6374;SDS011;35400;45.472;-122.822;2022-12-16T07:42:05;3.40;;;2.67;;
6374;SDS011;35400;45.472;-122.822;2022-12-16T07:44:50;4.33;;;2.60;;
6374;SDS011;35400;45.472;-122.822;2022-12-16T07:47:35;6.37;;;2.83;;
6374;SDS011;35400;45.472;-122.822;2022-12-16T07:50:20;4.60;;;2.87;;
6374;SDS011;35400;45.472;-122.822;2022-12-16T07:53:06;4.83;;;2.67;;
6374;SDS011;35400;45.472;-122.822;2022-12-16T07:55:52;3.97;;;2.53;;
6374;SDS011;35400;45.472;-122.822;2022-12-16T07:58:37;2.90;;;1.97;;
6374;SDS011;35400;45.472;-122.822;2022-12-16T08:01:22;4.63;;;2.00;;
6374;SDS011;35400;45.472;-122.822;2022-12-16T08:04:07;3.63;;;2.27;;
6374;SDS011;35400;45.472;-122.822;2022-12-16T08:06:53;3.43;;;1.90;;
6374;SDS011;35400;45.472;-122.822;2022-12-16T08:09:38;3.20;;;2.23;;
6374;SDS011;35400;45.472;-122.822;2022-12-16T08:12:23;5.47;;;2.47;;
6374;SDS011;35400;45.472;-122.822;2022-12-16T08:15:08;3.70;;;2.27;;
6374;SDS011;35400;45.472;-122.822;2022-12-16T08:17:54;2.70;;;1.50;;
6374;SDS011;35400;45.472;-122.822;2022-12-16T08:20:39;3.53;;;1.83;;
6374;SDS011;35400;45.472;-122.822;2022-12-16T08:23:24;3.60;;;2.43;;
6374;SDS011;35400;45.472;-122.822;2022-12-16T08:26:09;3.17;;;1.90;;
6374;SDS011;35400;45.472;-122.822;2022-12-16T08:28:55;2.50;;;1.63;;
6374;SDS011;35400;45.472;-122.822;2022-12-16T08:31:39;1.50;;;1.40;;
6374;SDS011;35400;45.472;-122.822;2022-12-16T08:34:25;1.87;;;1.30;;
6374;SDS011;35400;45.472;-122.822;2022-12-16T08:37:10;1.37;;;0.93;;
6374;SDS011;35400;45.472;-122.822;2022-12-16T08:39:55;1.53;;;1.10;;
6374;SDS011;35400;45.472;-122.822;2022-12-16T08:42:40;1.40;;;1.30;;
6374;SDS011;35400;45.472;-122.822;2022-12-16T08:45:25;1.30;;;1.20;;
6374;SDS011;35400;45.472;-122.822;2022-12-16T08:48:10;1.17;;;1.10;;
6374;SDS011;35400;45.472;-122.822;2022-12-16T08:51:00;1.87;;;1.23;;
6374;SDS011;35400;45.472;-122.822;2022-12-16T08:53:47;1.23;;;1.10;;
6374;SDS011;35400;45.472;-122.822;2022-12-16T08:56:32;2.60;;;1.33;;
6374;SDS011;35400;45.472;-122.822;2022-12-16T08:59:17;2.17;;;1.20;;
6374;SDS011;35400;45.472;-122.822;2022-12-16T09:02:03;1.10;;;1.00;;
6374;SDS011;35400;45.472;-122.822;2022-12-16T09:04:50;1.30;;;1.20;;
6374;SDS011;35400;45.472;-122.822;2022-12-16T09:07:35;2.87;;;1.10;;
6374;SDS011;35400;45.472;-122.822;2022-12-16T09:10:21;1.20;;;1.10;;
6374;SDS011;35400;45.472;-122.822;2022-12-16T09:13:07;1.30;;;1.00;;
6374;SDS011;35400;45.472;-122.822;2022-12-16T09:15:53;1.00;;;0.90;;
6374;SDS011;35400;45.472;-122.822;2022-12-16T09:18:39;1.23;;;1.03;;
6374;SDS011;35400;45.472;-122.822;2022-12-16T09:21:23;1.57;;;1.33;;
6374;SDS011;35400;45.472;-122.822;2022-12-16T09:24:09;2.10;;;1.50;;
6374;SDS011;35400;45.472;-122.822;2022-12-16T09:26:54;1.40;;;1.20;;
6374;SDS011;35400;45.472;-122.822;2022-12-16T09:29:40;3.27;;;1.30;;
6374;SDS011;35400;45.472;-122.822;2022-12-16T09:32:25;1.40;;;1.30;;
6374;SDS011;35400;45.472;-122.822;2022-12-16T09:35:10;1.17;;;1.00;;
6374;SDS011;35400;45.472;-122.822;2022-12-16T09:37:55;1.80;;;1.70;;
6374;SDS011;35400;45.472;-122.822;2022-12-16T09:40:41;1.20;;;1.10;;
6374;SDS011;35400;45.472;-122.822;2022-12-16T09:50:22;2.47;;;2.07;;
6374;SDS011;35400;45.472;-122.822;2022-12-16T09:53:10;2.90;;;2.13;;
6374;SDS011;35400;45.472;-122.822;2022-12-16T09:55:57;4.13;;;2.13;;
6374;SDS011;35400;45.472;-122.822;2022-12-16T09:58:48;1.83;;;1.70;;
6374;SDS011;35400;45.472;-122.822;2022-12-16T10:01:41;3.40;;;2.37;;
6374;SDS011;35400;45.472;-122.822;2022-12-16T10:04:27;2.23;;;2.03;;
6374;SDS011;35400;45.472;-122.822;2022-12-16T10:07:20;2.10;;;1.87;;
6374;SDS011;35400;45.472;-122.822;2022-12-16T10:10:15;2.30;;;1.87;;
6374;SDS011;35400;45.472;-122.822;2022-12-16T10:16:36;2.60;;;1.80;;
6374;SDS011;35400;45.472;-122.822;2022-12-16T10:22:38;1.87;;;1.60;;
6374;SDS011;35400;45.472;-122.822;2022-12-16T10:25:28;1.70;;;1.60;;
6374;SDS011;35400;45.472;-122.822;2022-12-16T10:28:20;1.37;;;1.27;;
6374;SDS011;35400;45.472;-122.822;2022-12-16T10:31:28;1.57;;;1.47;;
6374;SDS011;35400;45.472;-122.822;2022-12-16T10:34:15;1.57;;;1.47;;
6374;SDS011;35400;45.472;-122.822;2022-12-16T10:37:03;2.03;;;1.40;;
6374;SDS011;35400;45.472;-122.822;2022-12-16T10:39:50;2.30;;;1.50;;
6374;SDS011;35400;45.472;-122.822;2022-12-16T10:42:46;1.73;;;1.30;;
6374;SDS011;35400;45.472;-122.822;2022-12-16T10:46:10;2.27;;;1.53;;
6374;SDS011;35400;45.472;-122.822;2022-12-16T10:49:00;1.37;;;1.17;;
6374;SDS011;35400;45.472;-122.822;2022-12-16T10:51:46;1.30;;;1.20;;
6374;SDS011;35400;45.472;-122.822;2022-12-16T10:54:37;1.40;;;1.30;;
6374;SDS011;35400;45.472;-122.822;2022-12-16T10:57:31;1.30;;;1.20;;
6374;SDS011;35400;45.472;-122.822;2022-12-16T11:00:41;1.50;;;1.30;;
6374;SDS011;35400;45.472;-122.822;2022-12-16T11:03:33;1.47;;;1.17;;
6374;SDS011;35400;45.472;-122.822;2022-12-16T11:06:39;1.53;;;1.30;;
6374;SDS011;35400;45.472;-122.822;2022-12-16T11:09:26;2.60;;;1.50;;
6374;SDS011;35400;45.472;-122.822;2022-12-16T11:12:30;1.30;;;1.20;;
6374;SDS011;35400;45.472;-122.822;2022-12-16T11:18:06;1.73;;;1.30;;
6374;SDS011;35400;45.472;-122.822;2022-12-16T11:21:17;1.23;;;1.07;;
6374;SDS011;35400;45.472;-122.822;2022-12-16T11:24:10;1.10;;;1.00;;
6374;SDS011;35400;45.472;-122.822;2022-12-16T11:26:59;1.20;;;1.13;;
6374;SDS011;35400;45.472;-122.822;2022-12-16T11:29:50;1.70;;;1.10;;
6374;SDS011;35400;45.472;-122.822;2022-12-16T11:32:44;1.20;;;1.10;;
6374;SDS011;35400;45.472;-122.822;2022-12-16T11:35:46;0.90;;;0.90;;
6374;SDS011;35400;45.472;-122.822;2022-12-16T11:38:46;1.87;;;1.10;;
6374;SDS011;35400;45.472;-122.822;2022-12-16T11:41:35;2.13;;;1.33;;
6374;SDS011;35400;45.472;-122.822;2022-12-16T11:44:26;1.50;;;1.37;;
6374;SDS011;35400;45.472;-122.822;2022-12-16T11:47:17;1.47;;;1.20;;
6374;SDS011;35400;45.472;-122.822;2022-12-16T11:50:13;1.30;;;1.00;;
6374;SDS011;35400;45.472;-122.822;2022-12-16T11:53:01;1.30;;;1.20;;
6374;SDS011;35400;45.472;-122.822;2022-12-16T11:55:49;1.50;;;1.30;;
6374;SDS011;35400;45.472;-122.822;2022-12-16T12:01:42;1.43;;;1.30;;
6374;SDS011;35400;45.472;-122.822;2022-12-16T12:04:34;1.23;;;1.17;;
6374;SDS011;35400;45.472;-122.822;2022-12-16T12:17:07;1.47;;;1.20;;
6374;SDS011;35400;45.472;-122.822;2022-12-16T12:23:47;1.50;;;1.30;;
6374;SDS011;35400;45.472;-122.822;2022-12-16T12:26:34;1.23;;;1.13;;
6374;SDS011;35400;45.472;-122.822;2022-12-16T12:32:54;1.20;;;1.10;;
6374;SDS011;35400;45.472;-122.822;2022-12-16T12:40:02;0.83;;;0.83;;
6374;SDS011;35400;45.472;-122.822;2022-12-16T12:43:17;1.10;;;1.00;;
6374;SDS011;35400;45.472;-122.822;2022-12-16T12:46:28;1.57;;;1.20;;
6374;SDS011;35400;45.472;-122.822;2022-12-16T12:49:31;1.40;;;1.00;;
6374;SDS011;35400;45.472;-122.822;2022-12-16T12:59:04;1.30;;;1.10;;
6374;SDS011;35400;45.472;-122.822;2022-12-16T13:02:00;1.17;;;0.97;;
6374;SDS011;35400;45.472;-122.822;2022-12-16T13:04:49;0.90;;;0.90;;
6374;SDS011;35400;45.472;-122.822;2022-12-16T13:07:36;1.63;;;1.53;;
6374;SDS011;35400;45.472;-122.822;2022-12-16T13:13:36;1.40;;;1.00;;
6374;SDS011;35400;45.472;-122.822;2022-12-16T13:22:30;1.30;;;1.20;;
6374;SDS011;35400;45.472;-122.822;2022-12-16T13:25:52;1.77;;;1.10;;
6374;SDS011;35400;45.472;-122.822;2022-12-16T13:28:35;1.20;;;1.10;;
6374;SDS011;35400;45.472;-122.822;2022-12-16T13:31:23;1.53;;;1.20;;
6374;SDS011;35400;45.472;-122.822;2022-12-16T13:36:58;1.80;;;1.20;;
6374;SDS011;35400;45.472;-122.822;2022-12-16T13:39:56;1.10;;;0.90;;
6374;SDS011;35400;45.472;-122.822;2022-12-16T13:43:03;1.10;;;1.00;;
6374;SDS011;35400;45.472;-122.822;2022-12-16T13:48:43;1.50;;;1.20;;
6374;SDS011;35400;45.472;-122.822;2022-12-16T13:54:25;1.47;;;1.37;;
6374;SDS011;35400;45.472;-122.822;2022-12-16T13:57:22;1.67;;;1.50;;
6374;SDS011;35400;45.472;-122.822;2022-12-16T14:00:18;1.70;;;1.20;;
6374;SDS011;35400;45.472;-122.822;2022-12-16T14:03:48;1.60;;;1.30;;
6374;SDS011;35400;45.472;-122.822;2022-12-16T14:06:25;2.30;;;1.47;;
6374;SDS011;35400;45.472;-122.822;2022-12-16T14:09:21;1.50;;;1.40;;
6374;SDS011;35400;45.472;-122.822;2022-12-16T14:16:00;1.60;;;1.50;;
6374;SDS011;35400;45.472;-122.822;2022-12-16T14:25:16;2.20;;;1.80;;
6374;SDS011;35400;45.472;-122.822;2022-12-16T14:28:11;3.20;;;1.80;;
6374;SDS011;35400;45.472;-122.822;2022-12-16T14:31:25;2.47;;;1.70;;
6374;SDS011;35400;45.472;-122.822;2022-12-16T14:34:15;2.30;;;1.60;;
6374;SDS011;35400;45.472;-122.822;2022-12-16T14:37:10;1.97;;;1.60;;
6374;SDS011;35400;45.472;-122.822;2022-12-16T14:39:57;2.20;;;1.90;;
6374;SDS011;35400;45.472;-122.822;2022-12-16T14:42:42;2.73;;;1.60;;
6374;SDS011;35400;45.472;-122.822;2022-12-16T14:45:38;2.03;;;1.43;;
6374;SDS011;35400;45.472;-122.822;2022-12-16T14:48:38;1.50;;;1.40;;
6374;SDS011;35400;45.472;-122.822;2022-12-16T14:51:25;1.73;;;1.33;;
6374;SDS011;35400;45.472;-122.822;2022-12-16T14:57:14;1.73;;;1.30;;
6374;SDS011;35400;45.472;-122.822;2022-12-16T15:03:03;2.97;;;2.00;;
6374;SDS011;35400;45.472;-122.822;2022-12-16T15:05:51;1.83;;;1.73;;
6374;SDS011;35400;45.472;-122.822;2022-12-16T15:08:53;2.60;;;2.03;;
6374;SDS011;35400;45.472;-122.822;2022-12-16T15:11:43;1.93;;;1.73;;
6374;SDS011;35400;45.472;-122.822;2022-12-16T15:14:31;2.37;;;1.93;;
6374;SDS011;35400;45.472;-122.822;2022-12-16T15:17:22;2.57;;;1.90;;
6374;SDS011;35400;45.472;-122.822;2022-12-16T15:20:16;3.10;;;2.33;;
6374;SDS011;35400;45.472;-122.822;2022-12-16T15:23:09;2.77;;;2.40;;
6374;SDS011;35400;45.472;-122.822;2022-12-16T15:26:04;4.20;;;2.47;;
6374;SDS011;35400;45.472;-122.822;2022-12-16T15:28:50;2.50;;;2.30;;
6374;SDS011;35400;45.472;-122.822;2022-12-16T15:31:37;4.23;;;2.70;;
6374;SDS011;35400;45.472;-122.822;2022-12-16T15:37:15;6.37;;;2.17;;
6374;SDS011;35400;45.472;-122.822;2022-12-16T15:40:02;3.27;;;2.40;;
6374;SDS011;35400;45.472;-122.822;2022-12-16T15:42:49;3.63;;;2.37;;
6374;SDS011;35400;45.472;-122.822;2022-12-16T15:45:35;2.70;;;2.20;;
6374;SDS011;35400;45.472;-122.822;2022-12-16T15:48:22;2.47;;;2.17;;
6374;SDS011;35400;45.472;-122.822;2022-12-16T15:54:26;4.70;;;2.20;;
6374;SDS011;35400;45.472;-122.822;2022-12-16T15:58:12;4.70;;;2.10;;
6374;SDS011;35400;45.472;-122.822;2022-12-16T16:00:38;3.03;;;2.47;;
6374;SDS011;35400;45.472;-122.822;2022-12-16T16:03:27;3.43;;;2.00;;
6374;SDS011;35400;45.472;-122.822;2022-12-16T16:06:24;5.67;;;2.37;;
6374;SDS011;35400;45.472;-122.822;2022-12-16T16:09:14;2.40;;;1.90;;
6374;SDS011;35400;45.472;-122.822;2022-12-16T16:12:03;4.70;;;2.37;;
6374;SDS011;35400;45.472;-122.822;2022-12-16T16:14:48;3.20;;;2.40;;
6374;SDS011;35400;45.472;-122.822;2022-12-16T16:17:33;3.87;;;2.67;;
6374;SDS011;35400;45.472;-122.822;2022-12-16T16:20:18;3.40;;;2.40;;
6374;SDS011;35400;45.472;-122.822;2022-12-16T16:23:04;3.53;;;2.40;;
6374;SDS011;35400;45.472;-122.822;2022-12-16T16:25:49;3.10;;;2.37;;
6374;SDS011;35400;45.472;-122.822;2022-12-16T16:28:34;3.63;;;2.87;;
6374;SDS011;35400;45.472;-122.822;2022-12-16T16:31:19;3.10;;;2.60;;
6374;SDS011;35400;45.472;-122.822;2022-12-16T16:34:04;2.30;;;2.10;;
6374;SDS011;35400;45.472;-122.822;2022-12-16T16:36:53;2.37;;;2.17;;
6374;SDS011;35400;45.472;-122.822;2022-12-16T16:39:41;4.60;;;2.87;;
6374;SDS011;35400;45.472;-122.822;2022-12-16T16:42:28;4.83;;;2.50;;
6374;SDS011;35400;45.472;-122.822;2022-12-16T16:45:13;5.00;;;2.50;;
6374;SDS011;35400;45.472;-122.822;2022-12-16T16:48:12;2.37;;;2.00;;
6374;SDS011;35400;45.472;-122.822;2022-12-16T16:51:00;2.00;;;1.63;;
6374;SDS011;35400;45.472;-122.822;2022-12-16T16:53:46;2.10;;;1.77;;
6374;SDS011;35400;45.472;-122.822;2022-12-16T16:56:33;3.13;;;2.20;;
6374;SDS011;35400;45.472;-122.822;2022-12-16T16:59:23;2.30;;;1.60;;
6374;SDS011;35400;45.472;-122.822;2022-12-16T17:02:18;2.97;;;1.70;;
6374;SDS011;35400;45.472;-122.822;2022-12-16T17:05:05;3.00;;;1.83;;
6374;SDS011;35400;45.472;-122.822;2022-12-16T17:07:52;2.30;;;1.90;;
6374;SDS011;35400;45.472;-122.822;2022-12-16T17:10:37;1.77;;;1.50;;
6374;SDS011;35400;45.472;-122.822;2022-12-16T17:13:23;2.23;;;1.87;;
6374;SDS011;35400;45.472;-122.822;2022-12-16T17:16:11;2.33;;;1.53;;
6374;SDS011;35400;45.472;-122.822;2022-12-16T17:18:57;2.37;;;1.70;;
6374;SDS011;35400;45.472;-122.822;2022-12-16T17:21:43;1.90;;;1.70;;
6374;SDS011;35400;45.472;-122.822;2022-12-16T17:24:28;2.13;;;1.67;;
6374;SDS011;35400;45.472;-122.822;2022-12-16T17:27:18;1.67;;;1.53;;
6374;SDS011;35400;45.472;-122.822;2022-12-16T17:30:08;1.97;;;1.63;;
6374;SDS011;35400;45.472;-122.822;2022-12-16T17:33:02;1.87;;;1.30;;
6374;SDS011;35400;45.472;-122.822;2022-12-16T17:35:48;2.37;;;1.90;;
6374;SDS011;35400;45.472;-122.822;2022-12-16T17:38:38;2.70;;;2.00;;
6374;SDS011;35400;45.472;-122.822;2022-12-16T17:41:26;1.70;;;1.37;;
6374;SDS011;35400;45.472;-122.822;2022-12-16T17:44:12;2.13;;;1.70;;
6374;SDS011;35400;45.472;-122.822;2022-12-16T17:46:58;1.73;;;1.40;;
6374;SDS011;35400;45.472;-122.822;2022-12-16T17:49:43;1.70;;;1.50;;
6374;SDS011;35400;45.472;-122.822;2022-12-16T17:52:28;2.27;;;1.60;;
6374;SDS011;35400;45.472;-122.822;2022-12-16T17:55:14;2.23;;;2.03;;